Fog From: 17-12-2017 23:02 Until: 18-12-2017 22:59 warning for: Fog Level: Orange info button
From: 01-01-1970 01:00 Until: 01:00 warning for:  Level:  info button

Visit other weathersites:

Galway City Weather

Moycullen Weather

Waterford City Weather

Charlestown Weather

Clevedon Weather



Nearby METAR Reports

   
EBAW - Antwerp
Updated: 18-12-2017 14:20
Mostly Cloudy  
Mostly Cloudy  
   Wind: NNW 14.8 km/h
Wind: NNW 14.8 km/h
Temperature: 8°C
Wind Chill: 6°C
Dew Point: 4°C
Humidity: 76%
Barometer: 1026 hPa
Clouds: Mostly Cloudy
Visibility: More than 10 km
Cloud details: Mostly Cloudy 823 m
EBAW 181420Z 33008KT 290V350 9999 BKN027 08/04 Q1026 NOSIG
EBLG - Li├Ęge
Updated: 18-12-2017 14:20
Mostly Cloudy  
Mostly Cloudy  
   Wind: NNW 9.3 km/h
Wind: NNW 9.3 km/h
Temperature: 6°C
Wind Chill: 4°C
Dew Point: 4°C
Humidity: 87%
Barometer: 1024 hPa
Clouds: Mostly Cloudy
Visibility: 9 km
Cloud details: Partly Cloudy 274.3 m,
Mostly Cloudy 365.8 m
EBLG 181420Z 33005KT 300V360 9000 SCT009 BKN012 06/04 Q1024 NOSIG
EBCV - Mons/Bergen
Updated: 18-12-2017 14:36
Mostly Cloudy  
Mostly Cloudy  
   Wind: North 14.8 km/h
Wind: North 14.8 km/h
Temperature: 7°C
Wind Chill: 4°C
Dew Point: 5°C
Humidity: 87%
Barometer: 1027 hPa
Clouds: Mostly Cloudy
Visibility: More than 10 km
Cloud details: Mostly Cloudy 731.5 m
EBCV 181436Z AUTO 35008KT 9999 BKN024/// 07/05 Q1027 WHT
EHBK - Maastricht
Updated: 18-12-2017 14:25
Overcast  
Overcast  
   Wind: NNW 11.1 km/h
Wind: NNW 11.1 km/h
Temperature: 6°C
Wind Chill: 4°C
Dew Point: 5°C
Humidity: 93%
Barometer: 1024 hPa
Clouds: Overcast
Visibility: 9 km
Cloud details: Few Clouds 61 m,
Partly Cloudy 274.3 m,
Overcast 304.8 m
EHBK 181425Z AUTO 34006KT 300V360 9000 FEW002 SCT009 OVC010 06/05 Q1024 REDZ TEMPO 4000
ELLX - Luxemburg
Updated: 18-12-2017 14:20
Light Drizzle, Mostly Cloudy  
Light Drizzle, Mostly Cloudy  
   Wind: North 16.7 km/h
Wind: North 16.7 km/h
Temperature: 4°C
Wind Chill: 0°C
Dew Point: 4°C
Humidity: 100%
Barometer: 1023 hPa
Clouds: Mostly Cloudy
Visibility: 8 km
Cloud details: Partly Cloudy 274.3 m,
Mostly Cloudy 579.1 m
ELLX 181420Z 36009KT 8000 -DZ SCT009 BKN019 04/04 Q1023 NOSIG
EBOS - Oostende
Updated: 18-12-2017 14:20
Few Clouds  
Few Clouds  
   Wind: North 16.7 km/h
Wind: North 16.7 km/h
Temperature: 7°C
Wind Chill: 4°C
Dew Point: 4°C
Humidity: 81%
Barometer: 1028 hPa
Clouds: Few Clouds
Visibility: More than 10 km
Cloud details: Few Clouds 731.5 m
EBOS 181420Z 35009KT 9999 FEW024 07/04 Q1028 NOSIG

Script developed by  Saratoga-weather.org Adapted for the template by  Weerstation Leuven

You find our weather info also at:

UK Metoffice

European Weather Network

Weather Underground

Equipment we use:

Weather-station
Davis Vantage Vue

Weather-program
Weather Display

Weather-server
Dell 3050 Micro Desktop

Provider
RS Hosting

Davis Vantage Vue

Weather Display

Dell 3050 Micro Desktop

RS Hosting